createdAt,value
2022-12-25T00:03:27.962Z,100.00
2022-12-25T00:13:31.435Z,100.00
2022-12-25T00:23:35.140Z,100.00
2022-12-25T00:33:41.768Z,100.00
2022-12-25T00:43:44.426Z,100.00
2022-12-25T00:53:47.184Z,100.00
2022-12-25T01:03:49.664Z,100.00
2022-12-25T01:13:52.328Z,100.00
2022-12-25T01:23:54.944Z,100.00
2022-12-25T01:33:57.492Z,100.00
2022-12-25T01:44:05.814Z,100.00
2022-12-25T01:54:16.169Z,100.00
2022-12-25T02:04:25.199Z,100.00
2022-12-25T02:14:33.280Z,100.00
2022-12-25T02:24:56.828Z,100.00
2022-12-25T02:35:02.323Z,100.00
2022-12-25T02:45:23.873Z,100.00
2022-12-25T02:55:51.025Z,100.00
2022-12-25T03:06:17.855Z,100.00
2022-12-25T03:16:39.454Z,100.00
2022-12-25T03:26:54.861Z,100.00
2022-12-25T03:37:06.405Z,100.00
2022-12-25T03:47:37.420Z,100.00
2022-12-25T03:57:58.936Z,100.00
2022-12-25T04:08:20.169Z,100.00
2022-12-25T04:18:41.315Z,100.00
2022-12-25T04:29:02.632Z,100.00
2022-12-25T04:39:05.142Z,100.00
2022-12-25T04:49:07.665Z,100.00
2022-12-25T04:59:10.125Z,100.00
2022-12-25T05:09:12.943Z,100.00
2022-12-25T05:19:17.644Z,100.00
2022-12-25T05:29:20.200Z,100.00
2022-12-25T05:39:23.209Z,100.00
2022-12-25T05:49:25.760Z,100.00
2022-12-25T05:59:31.887Z,100.00
2022-12-25T06:09:34.363Z,100.00
2022-12-25T06:19:37.313Z,100.00
2022-12-25T06:29:40.835Z,100.00
2022-12-25T06:39:43.327Z,100.00
2022-12-25T06:49:45.758Z,100.00
2022-12-25T06:59:54.618Z,100.00
2022-12-25T07:09:57.720Z,100.00
2022-12-25T07:20:01.764Z,100.00
2022-12-25T07:30:05.018Z,100.00
2022-12-25T07:40:08.095Z,100.00
2022-12-25T07:50:10.986Z,100.00
2022-12-25T08:00:14.327Z,100.00
2022-12-25T08:10:16.993Z,100.00
2022-12-25T08:20:19.532Z,100.00
2022-12-25T08:30:22.043Z,100.00
2022-12-25T08:40:24.733Z,100.00
2022-12-25T08:50:27.304Z,100.00
2022-12-25T09:00:29.829Z,100.00
2022-12-25T09:10:36.828Z,100.00
2022-12-25T09:20:39.343Z,100.00
2022-12-25T09:30:41.894Z,100.00
2022-12-25T09:40:45.030Z,100.00
2022-12-25T09:51:03.183Z,100.00
2022-12-25T10:01:31.840Z,91.00
2022-12-25T10:12:01.358Z,88.24
2022-12-25T10:22:12.114Z,81.03
2022-12-25T10:32:14.573Z,78.76
2022-12-25T10:42:38.769Z,77.55
2022-12-25T10:53:05.840Z,75.04
2022-12-25T11:03:22.641Z,75.52
2022-12-25T11:13:30.590Z,74.27
2022-12-25T11:23:33.199Z,73.82
2022-12-25T11:33:42.548Z,72.38
2022-12-25T11:43:56.066Z,68.75
2022-12-25T11:54:17.035Z,66.13
2022-12-25T12:04:31.783Z,63.73
2022-12-25T12:14:48.632Z,62.73
2022-12-25T12:24:59.083Z,61.24
2022-12-25T12:35:32.892Z,60.83
2022-12-25T12:45:38.116Z,59.42
2022-12-25T12:55:40.815Z,66.21
2022-12-25T13:05:52.970Z,72.36
2022-12-25T13:15:57.627Z,78.16
2022-12-25T13:26:02.961Z,79.66
2022-12-25T13:36:11.402Z,81.72
2022-12-25T13:46:15.738Z,82.90
2022-12-25T13:56:18.419Z,85.84
2022-12-25T14:06:31.355Z,87.09
2022-12-25T14:16:34.778Z,88.26
2022-12-25T14:26:37.353Z,91.70
2022-12-25T14:36:40.370Z,94.25
2022-12-25T14:46:42.887Z,97.75
2022-12-25T14:56:50.837Z,100.00
2022-12-25T15:06:56.701Z,100.00
2022-12-25T15:17:02.870Z,100.00
2022-12-25T15:27:12.419Z,100.00
2022-12-25T15:37:15.539Z,100.00
2022-12-25T15:47:22.920Z,100.00
2022-12-25T15:57:26.420Z,100.00
2022-12-25T16:07:31.957Z,100.00
2022-12-25T16:17:34.794Z,100.00
2022-12-25T16:27:37.283Z,100.00
2022-12-25T16:37:40.079Z,100.00
2022-12-25T16:47:42.731Z,100.00
2022-12-25T16:57:47.808Z,100.00
2022-12-25T17:07:50.772Z,100.00
2022-12-25T17:17:53.418Z,100.00
2022-12-25T17:27:55.966Z,100.00
2022-12-25T17:37:58.462Z,100.00
2022-12-25T17:48:01.017Z,100.00
2022-12-25T17:58:05.406Z,100.00
2022-12-25T18:08:08.201Z,100.00
2022-12-25T18:18:10.691Z,100.00
2022-12-25T18:28:13.255Z,100.00
2022-12-25T18:38:15.718Z,100.00
2022-12-25T18:48:18.193Z,100.00
2022-12-25T18:58:20.907Z,100.00
2022-12-25T19:08:23.360Z,100.00
2022-12-25T19:18:26.047Z,100.00
2022-12-25T19:28:28.560Z,100.00
2022-12-25T19:38:31.247Z,100.00
2022-12-25T19:48:34.899Z,100.00
2022-12-25T19:58:37.500Z,100.00
2022-12-25T20:08:41.276Z,100.00
2022-12-25T20:18:43.902Z,100.00
2022-12-25T20:28:46.688Z,100.00
2022-12-25T20:38:49.263Z,100.00
2022-12-25T20:48:53.072Z,100.00
2022-12-25T20:58:58.327Z,100.00
2022-12-25T21:09:00.951Z,100.00
2022-12-25T21:19:03.555Z,100.00
2022-12-25T21:29:09.974Z,100.00
2022-12-25T21:39:12.812Z,100.00
2022-12-25T21:49:38.138Z,100.00
2022-12-25T21:59:40.739Z,100.00
2022-12-25T22:09:48.119Z,100.00
2022-12-25T22:19:51.081Z,100.00
2022-12-25T22:29:53.631Z,100.00
2022-12-25T22:39:56.153Z,100.00
2022-12-25T22:49:58.884Z,100.00
2022-12-25T23:00:01.824Z,100.00
2022-12-25T23:10:06.125Z,100.00
2022-12-25T23:20:27.995Z,100.00
2022-12-25T23:30:30.728Z,100.00
2022-12-25T23:40:33.503Z,100.00
2022-12-25T23:50:35.980Z,100.00
